EA8NE-3 Weather Reports


time (UTC)temp
C
wind
direction
speed
KPH
gust
KPH
rain 1hr
cm
rain 24hr
cm
rain mn
cm
humidity
%
barometer
mb
20180123041028 12 342 0.0 3.2 0.00 0.00 0.00 66 1025.8
20180123040030 12 341 3.2 4.8 0.00 0.00 0.00 66 1024.8
20180123035029 12 279 3.2 4.8 0.00 0.00 0.00 66 1024.8
20180123034028 12 260 3.2 3.2 0.00 0.00 0.00 66 1025.8
20180123033027 12 306 0.0 3.2 0.00 0.00 0.00 65 1025.8
20180123032032 12 304 0.0 0.0 0.00 0.00 0.00 65 1025.8
20180123031030 12 311 3.2 4.8 0.00 0.00 0.00 64 1024.8
20180123030028 12 294 3.2 3.2 0.00 0.00 0.00 64 1024.8
20180123025030 12 224 0.0 0.0 0.00 0.00 0.00 63 1024.8
20180123024030 13 346 3.2 4.8 0.00 0.00 0.00 64 1024.8
20180123023026 13 299 3.2 6.4 0.00 0.00 0.00 66 1025.8
20180123022029 13 260 6.4 8.0 0.00 0.00 0.00 68 1025.8
20180123021027 13 237 0.0 4.8 0.00 0.00 0.00 68 1025.8
20180123020031 13 244 3.2 3.2 0.00 0.00 0.00 67 1025.8
20180123015027 13 240 0.0 3.2 0.00 0.00 0.00 67 1025.8
20180123014028 13 258 0.0 0.0 0.00 0.00 0.00 67 1025.8
20180123013027 13 246 3.2 4.8 0.00 0.00 0.00 68 1025.8
20180123012029 13 217 3.2 6.4 0.00 0.00 0.00 67 1025.8
20180123011027 13 240 0.0 0.0 0.00 0.00 0.00 66 1025.8
20180123010027 12 313 0.0 0.0 0.00 0.00 0.00 63 1025.8
20180123004026 12 314 0.0 0.0 0.00 0.00 0.00 63 1025.8
20180123003031 12 256 0.0 0.0 0.00 0.00 0.00 64 1025.8
20180123002032 12 257 0.0 3.2 0.00 0.00 0.00 66 1025.8
20180123001028 12 300 0.0 0.0 0.00 0.00 0.00 68 1026.8
20180123000028 13 202 0.0 0.0 0.00 0.00 0.00 68 1026.8
20180122235030 13 268 0.0 0.0 0.00 0.00 0.00 70 1026.8
20180122234028 13 357 0.0 3.2 0.00 0.00 0.00 70 1025.8
20180122233028 14 240 3.2 4.8 0.00 0.00 0.00 71 1025.8
20180122232026 14 216 8.0 11.3 0.00 0.00 0.00 71 1025.8
20180122231027 14 168 8.0 8.0 0.00 0.00 0.00 72 1026.8
20180122230028 14 191 4.8 4.8 0.00 0.00 0.00 71 1026.8
20180122225027 14 206 4.8 4.8 0.00 0.00 0.00 72 1026.8
20180122224028 14 185 4.8 4.8 0.00 0.00 0.00 72 1026.8
20180122223027 15 221 3.2 3.2 0.00 0.00 0.00 72 1026.8
20180122220031 15 168 4.8 4.8 0.00 0.00 0.00 72 1026.8
20180122215029 15 135 0.0 0.0 0.00 0.00 0.00 72 1026.8
20180122214028 15 150 0.0 0.0 0.00 0.00 0.00 73 1026.8
20180122213028 15 141 0.0 3.2 0.00 0.00 0.00 73 1026.8
20180122212028 15 155 3.2 3.2 0.00 0.00 0.00 74 1026.8
20180122211027 15 149 0.0 3.2 0.00 0.00 0.00 74 1026.8
20180122210027 15 45 0.0 4.8 0.00 0.00 0.00 75 1026.8
20180122205031 15 110 0.0 0.0 0.00 0.00 0.00 75 1026.8
20180122204024 15 198 0.0 0.0 0.00 0.00 0.00 76 1026.8
20180122203032 15 71 0.0 0.0 0.00 0.00 0.00 76 1026.8
20180122202031 15 90 0.0 0.0 0.00 0.00 0.00 77 1026.8
20180122201027 16 98 3.2 4.8 0.00 0.00 0.00 77 1026.8
20180122195028 16 128 0.0 0.0 0.00 0.00 0.00 75 1025.8
20180122194030 16 50 0.0 6.4 0.00 0.00 0.00 75 1025.8
20180122193028 16 60 4.8 4.8 0.00 0.00 0.00 73 1025.8
20180122192024 16 44 6.4 6.4 0.00 0.00 0.00 73 1025.8
20180122191028 16 54 4.8 4.8 0.00 0.00 0.00 73 1025.8
20180122185025 16 35 4.8 4.8 0.00 0.00 0.00 73 1025.8
20180122184026 16 49 0.0 0.0 0.00 0.00 0.00 73 1025.8
20180122183028 16 26 0.0 4.8 0.00 0.00 0.00 73 1025.8
20180122182023 16 57 4.8 4.8 0.00 0.00 0.00 73 1025.8
20180122181152 16 105 0.0 0.0 0.00 0.00 0.00 73 1025.8
20180122181023 16 105 0.0 0.0 0.00 0.00 0.00 73 1025.8
20180122180157 16 60 3.2 4.8 0.00 0.00 0.00 72 1025.8
20180122180029 16 60 3.2 4.8 0.00 0.00 0.00 72 1025.8
20180122175318 17 55 3.2 4.8 0.00 0.00 0.00 72 1025.8
20180122175027 17 55 3.2 4.8 0.00 0.00 0.00 72 1025.8
20180122174147 17 124 3.2 3.2 0.00 0.00 0.00 71 1025.8
20180122174026 17 124 3.2 3.2 0.00 0.00 0.00 71 1025.8
20180122173156 16 108 0.0 0.0 0.00 0.00 0.00 71 1025.8
20180122173030 16 108 0.0 0.0 0.00 0.00 0.00 71 1025.8
20180122172440 17 60 3.2 4.8 0.00 0.00 0.00 69 1025.8
20180122172319 17 60 3.2 4.8 0.00 0.00 0.00 69 1025.8
20180122172242 17 60 3.2 4.8 0.00 0.00 0.00 69 1025.8
20180122172026 17 60 3.2 4.8 0.00 0.00 0.00 69 1025.8
20180122171226 17 115 3.2 4.8 0.00 0.00 0.00 68 1025.8
20180122171030 17 115 3.2 4.8 0.00 0.00 0.00 68 1025.8
20180122170217 17 84 3.2 3.2 0.00 0.00 0.00 65 1025.8
20180122170024 17 84 3.2 3.2 0.00 0.00 0.00 65 1025.8
20180122165352 17 83 3.2 4.8 0.00 0.00 0.00 60 1025.8
20180122165024 17 83 3.2 4.8 0.00 0.00 0.00 60 1025.8
20180122164316 17 71 0.0 4.8 0.00 0.00 0.00 57 1025.8
20180122164235 17 71 0.0 4.8 0.00 0.00 0.00 57 1025.8
20180122164024 17 71 0.0 4.8 0.00 0.00 0.00 57 1025.8
20180122163317 17 114 0.0 4.8 0.00 0.00 0.00 53 1024.8
20180122163026 17 114 0.0 4.8 0.00 0.00 0.00 53 1024.8
20180122162348 18 87 6.4 6.4 0.00 0.00 0.00 49 1024.8
20180122162024 18 87 6.4 6.4 0.00 0.00 0.00 49 1024.8
20180122161439 18 69 0.0 6.4 0.00 0.00 0.00 46 1025.8
20180122161029 18 69 0.0 6.4 0.00 0.00 0.00 46 1025.8
20180122160317 19 116 3.2 4.8 0.00 0.00 0.00 44 1025.8
20180122160026 19 116 3.2 4.8 0.00 0.00 0.00 44 1025.8
20180122155614 20 67 4.8 6.4 0.00 0.00 0.00 42 1025.8
20180122155025 20 67 4.8 6.4 0.00 0.00 0.00 42 1025.8
20180122154307 21 57 8.0 8.0 0.00 0.00 0.00 37 1025.8
20180122154026 21 57 8.0 8.0 0.00 0.00 0.00 37 1025.8
20180122153349 21 132 0.0 8.0 0.00 0.00 0.00 35 1025.8
20180122153316 21 132 0.0 8.0 0.00 0.00 0.00 35 1025.8
20180122153025 21 132 0.0 8.0 0.00 0.00 0.00 35 1025.8
20180122152314 22 117 4.8 6.4 0.00 0.00 0.00 33 1025.8
20180122152024 22 117 4.8 6.4 0.00 0.00 0.00 33 1025.8
20180122151025 22 62 4.8 4.8 0.00 0.00 0.00 33 1025.8
20180122150210 22 56 8.0 8.0 0.00 0.00 0.00 33 1025.8
20180122150024 22 56 8.0 8.0 0.00 0.00 0.00 33 1025.8
20180122145437 22 56 8.0 8.0 0.00 0.00 0.00 33 1025.8
20180122145026 22 56 8.0 8.0 0.00 0.00 0.00 33 1025.8
20180122144330 22 71 3.2 4.8 0.00 0.00 0.00 32 1025.8
20180122144028 22 71 3.2 4.8 0.00 0.00 0.00 32 1025.8
20180122143321 22 31 4.8 8.0 0.00 0.00 0.00 33 1025.8
20180122143028 22 31 4.8 8.0 0.00 0.00 0.00 33 1025.8
20180122142438 22 52 3.2 4.8 0.00 0.00 0.00 33 1025.8
20180122142026 22 52 3.2 4.8 0.00 0.00 0.00 33 1025.8
20180122141347 22 55 4.8 4.8 0.00 0.00 0.00 33 1025.8
20180122141028 22 55 4.8 4.8 0.00 0.00 0.00 33 1025.8
20180122140315 22 95 3.2 8.0 0.00 0.00 0.00 32 1025.8
20180122140027 22 95 3.2 8.0 0.00 0.00 0.00 32 1025.8
20180122135028 22 51 3.2 6.4 0.00 0.00 0.00 32 1025.8
20180122134029 23 46 8.0 8.0 0.00 0.00 0.00 31 1025.8
20180122133029 22 53 0.0 4.8 0.00 0.00 0.00 32 1026.8
20180122130615 22 52 4.8 4.8 0.00 0.00 0.00 33 1026.8
20180122130028 22 52 4.8 4.8 0.00 0.00 0.00 33 1026.8
20180122125501 22 55 3.2 3.2 0.00 0.00 0.00 33 1026.8
20180122125029 22 55 3.2 3.2 0.00 0.00 0.00 33 1026.8
20180122124432 21 39 4.8 8.0 0.00 0.00 0.00 34 1026.8
20180122124028 21 39 4.8 8.0 0.00 0.00 0.00 34 1026.8
20180122123603 22 35 3.2 4.8 0.00 0.00 0.00 35 1026.8
20180122123030 22 35 3.2 4.8 0.00 0.00 0.00 35 1026.8
20180122122541 21 68 6.4 6.4 0.00 0.00 0.00 35 1026.8
20180122122028 21 68 6.4 6.4 0.00 0.00 0.00 35 1026.8
20180122121614 21 71 0.0 4.8 0.00 0.00 0.00 36 1027.8
20180122120433 21 70 3.2 4.8 0.00 0.00 0.00 35 1027.8
20180122120028 21 70 3.2 4.8 0.00 0.00 0.00 35 1027.8
20180122115411 21 81 6.4 8.0 0.00 0.00 0.00 35 1027.8
20180122115029 21 81 6.4 8.0 0.00 0.00 0.00 35 1027.8
20180122114507 21 136 4.8 4.8 0.00 0.00 0.00 34 1027.8
20180122114029 21 136 4.8 4.8 0.00 0.00 0.00 34 1027.8
20180122113453 21 80 0.0 0.0 0.00 0.00 0.00 34 1027.8
20180122113026 21 80 0.0 0.0 0.00 0.00 0.00 34 1027.8
20180122112027 20 118 4.8 4.8 0.00 0.00 0.00 34 1027.8
20180122111641 21 56 3.2 4.8 0.00 0.00 0.00 32 1027.8
20180122111457 21 56 3.2 4.8 0.00 0.00 0.00 32 1027.8
20180122111028 21 56 3.2 4.8 0.00 0.00 0.00 32 1027.8
20180122110026 21 79 0.0 0.0 0.00 0.00 0.00 30 1027.8
20180122105436 21 75 0.0 0.0 0.00 0.00 0.00 25 1027.8
20180122105358 21 75 0.0 0.0 0.00 0.00 0.00 25 1027.8
20180122105029 21 75 0.0 0.0 0.00 0.00 0.00 25 1027.8
20180122104330 21 24 0.0 0.0 0.00 0.00 0.00 19 1027.8
20180122104028 21 24 0.0 0.0 0.00 0.00 0.00 19 1027.8
20180122103311 21 44 0.0 0.0 0.00 0.00 0.00 17 1027.8
20180122103027 21 44 0.0 0.0 0.00 0.00 0.00 17 1027.8
20180122102305 21 60 0.0 0.0 0.00 0.00 0.00 17 1027.8
20180122102028 21 60 0.0 0.0 0.00 0.00 0.00 17 1027.8
20180122101425 21 60 0.0 0.0 0.00 0.00 0.00 17 1027.8
20180122101343 21 60 0.0 0.0 0.00 0.00 0.00 17 1027.8
20180122101250 21 60 0.0 0.0 0.00 0.00 0.00 17 1027.8
20180122101120 21 60 0.0 0.0 0.00 0.00 0.00 17 1027.8
20180122101028 21 60 0.0 0.0 0.00 0.00 0.00 17 1027.8
20180122100303 21 75 0.0 0.0 0.00 0.00 0.00 14 1027.8
20180122100032 21 75 0.0 0.0 0.00 0.00 0.00 14 1027.8
20180122095528 22 59 0.0 0.0 0.00 0.00 0.00 14 1026.8
20180122095029 22 59 0.0 0.0 0.00 0.00 0.00 14 1026.8
20180122094259 22 41 0.0 0.0 0.00 0.00 0.00 14 1026.8
20180122094028 22 41 0.0 0.0 0.00 0.00 0.00 14 1026.8
20180122093252 21 30 0.0 0.0 0.00 0.00 0.00 14 1026.8
20180122093028 21 30 0.0 0.0 0.00 0.00 0.00 14 1026.8
20180122092233 20 29 0.0 0.0 0.00 0.00 0.00 15 1026.8
20180122092028 20 29 0.0 0.0 0.00 0.00 0.00 15 1026.8
20180122091315 20 29 0.0 0.0 0.00 0.00 0.00 15 1026.8
20180122091031 20 29 0.0 0.0 0.00 0.00 0.00 15 1026.8
20180122090327 18 29 0.0 0.0 0.00 0.00 0.00 15 1026.8
20180122090029 18 29 0.0 0.0 0.00 0.00 0.00 15 1026.8
20180122085721 17 311 0.0 0.0 0.00 0.00 0.00 16 1026.8
20180122084259 16 312 3.2 4.8 0.00 0.00 0.00 16 1026.8
20180122084031 16 312 3.2 4.8 0.00 0.00 0.00 16 1026.8
20180122083213 15 307 0.0 3.2 0.00 0.00 0.00 17 1025.8
20180122083028 15 307 0.0 3.2 0.00 0.00 0.00 17 1025.8
20180122081211 13 257 3.2 4.8 0.00 0.00 0.00 17 1026.8
20180122081026 13 257 3.2 4.8 0.00 0.00 0.00 17 1026.8
20180122080344 13 311 3.2 4.8 0.00 0.00 0.00 17 1026.8
20180122080027 13 311 3.2 4.8 0.00 0.00 0.00 17 1026.8
20180122075358 13 305 4.8 4.8 0.00 0.00 0.00 17 1026.8
20180122075029 13 305 4.8 4.8 0.00 0.00 0.00 17 1026.8
20180122074339 13 299 4.8 4.8 0.00 0.00 0.00 17 1026.8
20180122074306 13 299 4.8 4.8 0.00 0.00 0.00 17 1026.8
20180122074029 13 299 4.8 4.8 0.00 0.00 0.00 17 1026.8
20180122073309 13 307 3.2 4.8 0.00 0.00 0.00 17 1025.8
20180122073028 13 307 3.2 4.8 0.00 0.00 0.00 17 1025.8
20180122072258 13 19 0.0 3.2 0.00 0.00 0.00 17 1025.8
20180122072029 13 19 0.0 3.2 0.00 0.00 0.00 17 1025.8
20180122071308 13 277 3.2 3.2 0.00 0.00 0.00 17 1026.8
20180122071027 13 277 3.2 3.2 0.00 0.00 0.00 17 1026.8
20180122070327 13 318 3.2 4.8 0.00 0.00 0.00 17 1025.8
20180122070028 13 318 3.2 4.8 0.00 0.00 0.00 17 1025.8
20180122065404 13 318 3.2 4.8 0.00 0.00 0.00 17 1025.8
20180122065029 13 318 3.2 4.8 0.00 0.00 0.00 17 1025.8
20180122064309 13 286 4.8 4.8 0.00 0.00 0.00 17 1025.8
20180122064028 13 286 4.8 4.8 0.00 0.00 0.00 17 1025.8
20180122063332 13 285 3.2 4.8 0.00 0.00 0.00 17 1025.8
20180122063027 13 285 3.2 4.8 0.00 0.00 0.00 17 1025.8
20180122062346 13 314 4.8 4.8 0.00 0.00 0.00 17 1025.8
20180122062314 13 314 4.8 4.8 0.00 0.00 0.00 17 1025.8
20180122062029 13 314 4.8 4.8 0.00 0.00 0.00 17 1025.8
20180122061547 13 306 0.0 3.2 0.00 0.00 0.00 17 1025.8
20180122061425 13 306 0.0 3.2 0.00 0.00 0.00 17 1025.8
20180122061029 13 306 0.0 3.2 0.00 0.00 0.00 17 1025.8
20180122060240 13 7 3.2 4.8 0.00 0.00 0.00 17 1025.8
20180122060025 13 7 3.2 4.8 0.00 0.00 0.00 17 1025.8
20180122055314 11 314 3.2 4.8 0.00 0.00 0.00 18 1025.8
20180122055024 11 314 3.2 4.8 0.00 0.00 0.00 18 1025.8
20180122054315 10 313 4.8 4.8 0.00 0.00 0.00 26 1025.8
20180122054028 10 313 4.8 4.8 0.00 0.00 0.00 26 1025.8
20180122053250 10 294 3.2 3.2 0.00 0.00 0.00 30 1025.8
20180122053025 10 294 3.2 3.2 0.00 0.00 0.00 30 1025.8
20180122052427 9 314 0.0 0.0 0.00 0.00 0.00 38 1025.8
20180122052025 9 314 0.0 0.0 0.00 0.00 0.00 38 1025.8
20180122051303 9 314 0.0 0.0 0.00 0.00 0.00 46 1025.8
20180122051027 9 314 0.0 0.0 0.00 0.00 0.00 46 1025.8
20180122050259 10 314 0.0 0.0 0.00 0.00 0.00 56 1025.8
20180122050024 10 314 0.0 0.0 0.00 0.00 0.00 56 1025.8
20180122045334 10 314 0.0 0.0 0.00 0.00 0.00 66 1025.8
20180122045026 10 314 0.0 0.0 0.00 0.00 0.00 66 1025.8
20180122044024 10 314 0.0 0.0 0.00 0.00 0.00 73 1025.8
20180122043024 9 314 0.0 0.0 0.00 0.00 0.00 73 1025.8
20180122042437 10 316 0.0 0.0 0.00 0.00 0.00 79 1025.8
20180122042025 10 316 0.0 0.0 0.00 0.00 0.00 79 1025.8